Terminal Aerodrome Forecast
Issued by NWS Amarillo, TX

Home | Current Version | Previous Version | Text Only | Print | Product List | Glossary On
Versions: 1 2 3 4 5 6 7 8 9 10 11 12 13 14 15 16 17 18 19 20 21 22 23 24 25
000
FTUS44 KAMA 300900 AAA
TAFGUY
TAF AMD
KGUY 300928Z 3009/3106 22010KT P6SM -RA VCTS SCT015 OVC040CB
      TEMPO 3009/3012 VRB15G25KT 5SM -TSRA BR SCT005CB
     FM301300 32014G24KT P6SM VCTS SCT015 OVC040CB
     FM302000 04014KT P6SM SCT015 OVC060
     FM310200 03009KT P6SM SCT010 OVC040=

USA.gov is the U.S. government's official web portal to all federal, state and local government web resources and services.